Time;durP1;ratioP1;P1;durP2;ratioP2;P2;SDS_P1;SDS_P2;PMS_P1;PMS_P2;Temp;Humidity;BMP_temperature;BMP_pressure;BME280_temperature;BME280_humidity;BME280_pressure;Samples;Min_cycle;Max_cycle;Signal;HPM_P1;HPM_P2
2024/01/24 00:02:23;;;;;;;2.00;1.80;;;12.50;81.90;;;;;;5007614;28;20037;-82
2024/01/24 00:04:49;;;;;;;1.65;1.55;;;12.50;81.90;;;;;;5006442;28;20112;-81
2024/01/24 00:07:15;;;;;;;1.90;1.70;;;12.50;82.00;;;;;;5004546;28;20038;-81
2024/01/24 00:09:42;;;;;;;2.60;1.60;;;12.60;81.90;;;;;;5009200;28;20474;-86
2024/01/24 00:12:08;;;;;;;1.50;1.40;;;12.60;81.90;;;;;;5004222;28;20018;-76
2024/01/24 00:14:33;;;;;;;2.25;1.83;;;12.60;81.80;;;;;;5010025;28;20034;-81
2024/01/24 00:16:59;;;;;;;1.85;1.60;;;12.60;81.80;;;;;;4990994;28;20148;-76
2024/01/24 00:19:25;;;;;;;2.05;1.48;;;12.70;81.90;;;;;;5011086;28;20423;-82
2024/01/24 00:21:51;;;;;;;2.45;1.63;;;12.70;81.80;;;;;;4994888;28;20042;-81
2024/01/24 00:24:16;;;;;;;1.80;1.50;;;12.70;81.80;;;;;;5006615;28;20018;-85
2024/01/24 00:26:42;;;;;;;2.92;1.77;;;12.70;81.80;;;;;;5004887;28;20613;-75
2024/01/24 00:29:08;;;;;;;1.80;1.58;;;12.80;81.80;;;;;;5007638;28;20503;-82
2024/01/24 00:31:35;;;;;;;1.70;1.60;;;12.80;81.80;;;;;;5004176;28;20030;-76
2024/01/24 00:34:01;;;;;;;2.33;1.40;;;12.80;81.80;;;;;;5025476;28;20044;-83
2024/01/24 00:36:27;;;;;;;2.55;1.60;;;12.80;81.80;;;;;;5009661;28;20163;-81
2024/01/24 00:38:52;;;;;;;1.70;1.60;;;12.90;81.80;;;;;;4993661;28;20054;-81
2024/01/24 00:41:18;;;;;;;1.88;1.40;;;12.90;81.80;;;;;;4990172;28;20033;-75
2024/01/24 00:43:44;;;;;;;1.40;1.30;;;12.80;81.70;;;;;;4990844;28;20482;-83
2024/01/24 00:46:10;;;;;;;1.40;1.30;;;12.90;81.70;;;;;;4994401;28;20026;-81
2024/01/24 00:48:35;;;;;;;1.33;1.23;;;12.90;81.70;;;;;;5011096;28;20022;-81
2024/01/24 00:51:01;;;;;;;1.60;1.50;;;12.90;81.70;;;;;;5008289;28;20030;-83
2024/01/24 00:53:29;;;;;;;1.50;1.25;;;13.00;81.70;;;;;;4996976;28;20137;-85
2024/01/24 00:55:58;;;;;;;1.50;1.40;;;13.00;81.70;;;;;;4990137;28;20030;-87
2024/01/24 00:58:24;;;;;;;1.45;1.35;;;13.00;81.70;;;;;;5011068;28;20033;-83
2024/01/24 01:00:50;;;;;;;1.10;1.10;;;13.00;81.70;;;;;;4994164;28;20025;-81
2024/01/24 01:03:16;;;;;;;1.45;1.35;;;13.00;81.70;;;;;;5022503;28;20045;-76
2024/01/24 01:05:42;;;;;;;1.25;1.20;;;13.10;81.70;;;;;;4991846;28;20022;-76
2024/01/24 01:08:08;;;;;;;1.38;1.27;;;13.10;81.70;;;;;;5009318;28;20113;-86
2024/01/24 01:10:34;;;;;;;1.25;1.17;;;13.10;81.70;;;;;;5002886;28;20064;-82
2024/01/24 01:13:00;;;;;;;1.50;1.20;;;13.10;81.70;;;;;;4984422;28;20037;-86
2024/01/24 01:15:26;;;;;;;1.60;1.25;;;13.20;81.70;;;;;;4991478;28;20300;-85
2024/01/24 01:17:52;;;;;;;1.48;1.30;;;13.20;81.70;;;;;;4993782;28;20029;-76
2024/01/24 01:20:19;;;;;;;1.00;1.00;;;13.20;81.60;;;;;;4993407;28;20026;-85
2024/01/24 01:22:45;;;;;;;1.02;1.02;;;13.20;82.30;;;;;;5006283;28;20088;-75
2024/01/24 01:25:11;;;;;;;1.15;1.13;;;13.20;81.60;;;;;;5013906;28;20019;-75
2024/01/24 01:27:37;;;;;;;1.13;1.10;;;13.20;81.60;;;;;;4992350;28;20048;-76
2024/01/24 01:30:04;;;;;;;1.20;1.10;;;13.30;81.70;;;;;;4988192;28;20054;-76
2024/01/24 01:32:30;;;;;;;1.70;1.20;;;13.30;81.60;;;;;;5005154;28;20054;-76
2024/01/24 01:34:55;;;;;;;1.00;1.00;;;13.30;81.60;;;;;;5019295;28;20058;-87
2024/01/24 01:37:23;;;;;;;1.17;1.08;;;13.30;81.60;;;;;;5008809;28;20034;-85
2024/01/24 01:39:52;;;;;;;1.17;1.08;;;13.30;81.60;;;;;;5003931;28;20046;-76
2024/01/24 01:42:18;;;;;;;0.85;0.85;;;13.40;81.70;;;;;;5005242;28;20032;-81
2024/01/24 01:44:47;;;;;;;0.90;0.90;;;13.40;81.60;;;;;;4990744;28;20026;-82
2024/01/24 01:47:14;;;;;;;1.00;1.00;;;13.40;81.60;;;;;;5009218;28;20029;-76
2024/01/24 01:49:43;;;;;;;1.00;1.00;;;13.40;81.60;;;;;;5009263;28;20027;-82
2024/01/24 01:52:12;;;;;;;1.00;1.00;;;13.40;81.60;;;;;;5006729;28;20033;-85
2024/01/24 01:54:39;;;;;;;1.05;1.05;;;13.40;81.50;;;;;;5011050;28;20101;-76
2024/01/24 01:57:08;;;;;;;0.95;0.95;;;13.40;82.20;;;;;;4996955;28;20121;-76
2024/01/24 01:59:35;;;;;;;0.90;0.90;;;13.50;81.60;;;;;;5006169;28;20025;-81
2024/01/24 02:02:01;;;;;;;1.10;1.10;;;13.50;81.50;;;;;;5009488;28;20026;-82
2024/01/24 02:04:28;;;;;;;1.00;1.00;;;13.50;81.50;;;;;;4991700;28;20022;-81
2024/01/24 02:06:58;;;;;;;0.93;0.90;;;13.50;81.50;;;;;;5007322;28;20022;-81
2024/01/24 02:09:24;;;;;;;0.88;0.88;;;13.50;81.50;;;;;;5005051;28;20018;-82
2024/01/24 02:11:50;;;;;;;0.90;0.90;;;13.50;81.50;;;;;;5009041;28;20049;-76
2024/01/24 02:14:16;;;;;;;1.20;1.10;;;13.60;81.60;;;;;;5004230;28;20482;-76
2024/01/24 02:16:42;;;;;;;0.90;0.90;;;13.60;81.50;;;;;;5006653;28;20018;-82
2024/01/24 02:19:08;;;;;;;0.80;0.80;;;13.60;81.50;;;;;;4997294;28;20457;-76
2024/01/24 02:21:34;;;;;;;1.20;1.10;;;13.60;81.50;;;;;;4995051;28;20490;-84
2024/01/24 02:24:00;;;;;;;1.00;1.00;;;13.60;81.50;;;;;;4993690;28;20022;-76
2024/01/24 02:26:26;;;;;;;0.93;0.93;;;13.60;81.50;;;;;;4991975;28;20038;-82
2024/01/24 02:28:52;;;;;;;0.93;0.93;;;13.60;81.80;;;;;;5006755;28;20033;-81
2024/01/24 02:31:19;;;;;;;1.00;1.00;;;13.70;81.50;;;;;;5004093;28;20486;-84
2024/01/24 02:33:45;;;;;;;0.90;0.90;;;13.60;81.50;;;;;;5004170;28;20026;-86
2024/01/24 02:36:14;;;;;;;1.48;1.15;;;13.70;81.50;;;;;;5002207;28;20032;-86
2024/01/24 02:38:43;;;;;;;1.02;1.00;;;13.70;81.50;;;;;;4985811;28;20018;-81
2024/01/24 02:41:09;;;;;;;0.90;0.90;;;13.70;81.50;;;;;;5001334;28;20034;-76
2024/01/24 02:43:35;;;;;;;0.98;0.98;;;13.70;81.50;;;;;;4986943;28;20045;-75
2024/01/24 02:46:01;;;;;;;0.98;0.98;;;13.70;81.50;;;;;;5000723;28;20026;-76
2024/01/24 02:48:27;;;;;;;0.90;0.90;;;13.70;81.40;;;;;;4989829;28;20022;-83
2024/01/24 02:50:54;;;;;;;1.00;1.00;;;13.80;81.50;;;;;;4992898;28;20033;-83
2024/01/24 02:53:19;;;;;;;0.90;0.90;;;13.80;81.50;;;;;;4983973;28;20014;-82
2024/01/24 02:55:46;;;;;;;0.80;0.80;;;13.80;81.50;;;;;;5017154;28;20025;-82
2024/01/24 02:58:11;;;;;;;0.90;0.90;;;13.80;81.50;;;;;;5005630;28;20026;-82
2024/01/24 03:00:37;;;;;;;1.02;1.00;;;13.80;81.40;;;;;;5007864;28;20060;-82
2024/01/24 03:03:03;;;;;;;1.10;1.10;;;13.80;81.40;;;;;;5002769;28;20058;-82
2024/01/24 03:05:29;;;;;;;0.85;0.85;;;13.80;82.10;;;;;;4988851;28;20030;-76
2024/01/24 03:07:57;;;;;;;1.05;1.05;;;13.80;82.00;;;;;;4990608;28;20317;-82
2024/01/24 03:10:25;;;;;;;1.13;1.13;;;13.80;81.40;;;;;;5005761;28;20397;-82
2024/01/24 03:12:51;;;;;;;1.10;1.10;;;13.80;81.40;;;;;;5002368;28;20146;-76
2024/01/24 03:15:17;;;;;;;0.90;0.90;;;13.90;81.50;;;;;;4990401;28;20018;-82
2024/01/24 03:17:43;;;;;;;0.93;0.93;;;13.80;81.40;;;;;;4989345;28;20034;-82
2024/01/24 03:20:10;;;;;;;0.95;0.90;;;13.90;81.40;;;;;;5007706;28;20050;-76
2024/01/24 03:22:36;;;;;;;0.88;0.88;;;13.80;81.40;;;;;;4987476;28;20459;-82
2024/01/24 03:25:02;;;;;;;1.15;1.02;;;13.90;81.40;;;;;;5013550;28;20092;-82
2024/01/24 03:27:28;;;;;;;1.10;1.00;;;13.90;81.40;;;;;;4992560;28;20034;-82
2024/01/24 03:29:53;;;;;;;0.90;0.90;;;13.90;81.40;;;;;;4988535;28;20140;-82
2024/01/24 03:32:19;;;;;;;1.10;1.08;;;13.90;81.40;;;;;;4991535;28;20113;-83
2024/01/24 03:34:53;;;;;;;1.20;1.10;;;13.90;81.40;;;;;;4986093;28;20038;-76
2024/01/24 03:37:22;;;;;;;1.02;0.98;;;13.90;81.40;;;;;;5005347;28;20109;-84
2024/01/24 03:39:47;;;;;;;1.25;1.00;;;13.90;81.40;;;;;;5012549;28;20062;-82
2024/01/24 03:42:13;;;;;;;1.00;1.00;;;13.90;81.40;;;;;;4998537;28;20072;-85
2024/01/24 03:44:39;;;;;;;1.10;1.10;;;13.90;81.40;;;;;;5010941;28;20426;-85
2024/01/24 03:47:05;;;;;;;1.40;1.30;;;13.90;81.40;;;;;;5010433;28;20025;-82
2024/01/24 03:49:31;;;;;;;1.48;1.10;;;13.90;81.40;;;;;;5006924;28;20038;-82
2024/01/24 03:51:57;;;;;;;1.13;1.00;;;13.90;81.40;;;;;;5012938;28;20017;-83
2024/01/24 03:54:23;;;;;;;2.35;1.10;;;13.90;81.30;;;;;;4990240;28;20049;-76
2024/01/24 03:56:52;;;;;;;1.20;1.10;;;14.00;81.40;;;;;;5009241;28;20036;-75
2024/01/24 03:59:18;;;;;;;1.75;1.13;;;14.00;81.40;;;;;;5007533;28;20380;-76
2024/01/24 04:01:43;;;;;;;1.60;1.27;;;13.90;81.30;;;;;;4993667;28;20052;-83
2024/01/24 04:04:09;;;;;;;1.20;0.90;;;14.00;81.40;;;;;;5010779;28;20037;-83
2024/01/24 04:06:38;;;;;;;1.55;1.20;;;14.00;81.40;;;;;;5007713;28;20037;-75
2024/01/24 04:09:04;;;;;;;1.63;1.05;;;14.00;81.40;;;;;;5006025;28;20050;-85
2024/01/24 04:11:30;;;;;;;1.75;1.00;;;14.00;81.40;;;;;;4996059;28;20080;-84
2024/01/24 04:13:58;;;;;;;1.25;1.05;;;14.00;81.40;;;;;;4993390;28;20053;-84
2024/01/24 04:16:24;;;;;;;1.45;1.02;;;14.00;81.40;;;;;;4999255;28;20034;-76
2024/01/24 04:18:50;;;;;;;1.75;1.10;;;14.00;81.40;;;;;;5012636;28;20030;-75
2024/01/24 04:21:16;;;;;;;1.15;1.05;;;14.00;81.30;;;;;;5008301;28;20049;-76
2024/01/24 04:23:42;;;;;;;2.72;1.10;;;14.00;81.60;;;;;;4987299;28;20014;-75
2024/01/24 04:26:09;;;;;;;2.63;1.10;;;14.00;81.40;;;;;;4991967;28;20031;-82
2024/01/24 04:28:35;;;;;;;4.22;1.60;;;14.00;81.40;;;;;;5008613;28;20437;-75
2024/01/24 04:31:01;;;;;;;2.80;1.30;;;14.00;81.40;;;;;;5008989;28;20038;-77
2024/01/24 04:33:27;;;;;;;2.90;1.48;;;14.00;81.30;;;;;;5009991;28;20026;-82
2024/01/24 04:35:55;;;;;;;2.15;1.08;;;14.00;81.40;;;;;;4992794;28;20084;-83
2024/01/24 04:38:21;;;;;;;3.30;1.70;;;14.00;81.40;;;;;;4986404;28;20030;-75
2024/01/24 04:40:47;;;;;;;1.58;1.10;;;14.00;81.40;;;;;;5005918;28;20100;-83
2024/01/24 04:43:12;;;;;;;3.20;1.10;;;14.00;81.30;;;;;;5007234;28;20030;-83
2024/01/24 04:45:38;;;;;;;2.55;1.25;;;14.00;81.30;;;;;;5028392;28;20030;-83
2024/01/24 04:48:06;;;;;;;2.03;1.20;;;14.00;81.30;;;;;;4986229;28;20045;-81
2024/01/24 04:50:32;;;;;;;3.45;1.50;;;14.00;81.30;;;;;;5023637;28;20054;-76
2024/01/24 04:52:57;;;;;;;3.47;1.40;;;14.00;81.30;;;;;;4988629;28;20469;-76
2024/01/24 04:55:23;;;;;;;6.28;1.70;;;14.00;81.30;;;;;;5022426;28;20034;-84
2024/01/24 04:57:49;;;;;;;2.65;1.40;;;14.00;81.30;;;;;;4995233;28;20026;-83
2024/01/24 05:00:16;;;;;;;2.65;1.50;;;14.00;81.30;;;;;;4988793;28;20030;-76
2024/01/24 05:02:41;;;;;;;4.32;1.73;;;14.00;81.30;;;;;;5002493;28;20548;-86
2024/01/24 05:05:07;;;;;;;5.07;1.40;;;14.00;81.30;;;;;;4991126;28;20026;-83
2024/01/24 05:07:34;;;;;;;4.18;1.70;;;14.00;81.20;;;;;;5003930;28;20044;-83
2024/01/24 05:10:03;;;;;;;5.63;1.90;;;14.00;81.30;;;;;;4993457;28;20032;-84
2024/01/24 05:12:29;;;;;;;4.55;1.92;;;14.00;81.90;;;;;;5010112;28;20030;-76
2024/01/24 05:14:55;;;;;;;5.43;1.55;;;14.00;81.30;;;;;;5005149;28;20033;-76
2024/01/24 05:17:21;;;;;;;5.28;1.73;;;13.90;81.20;;;;;;4992955;28;20027;-82
2024/01/24 05:19:48;;;;;;;4.15;1.60;;;14.00;81.30;;;;;;4992865;28;20026;-83
2024/01/24 05:22:13;;;;;;;4.28;1.52;;;14.00;81.30;;;;;;4991141;28;20057;-82
2024/01/24 05:24:44;;;;;;;5.18;1.80;;;13.90;81.20;;;;;;5003355;28;20269;-76
2024/01/24 05:27:09;;;;;;;5.95;2.25;;;13.90;81.20;;;;;;5009593;28;20113;-85
2024/01/24 05:29:35;;;;;;;5.07;1.92;;;13.90;81.20;;;;;;4993512;28;20065;-82
2024/01/24 05:32:01;;;;;;;6.15;1.95;;;13.90;81.20;;;;;;5001447;28;20022;-77
2024/01/24 05:34:26;;;;;;;4.35;1.90;;;13.90;81.20;;;;;;4998623;28;20022;-76
2024/01/24 05:36:53;;;;;;;5.25;1.85;;;14.00;81.20;;;;;;4991468;28;20022;-77
2024/01/24 05:39:19;;;;;;;5.20;2.13;;;13.90;81.20;;;;;;4983397;28;20304;-80
2024/01/24 05:41:45;;;;;;;5.28;2.08;;;13.90;81.20;;;;;;5007866;28;20053;-77
2024/01/24 05:44:11;;;;;;;5.15;1.95;;;13.90;81.80;;;;;;4991662;28;20565;-87
2024/01/24 05:46:38;;;;;;;5.50;1.95;;;13.90;81.20;;;;;;4991173;28;20046;-81
2024/01/24 05:49:04;;;;;;;5.57;2.00;;;13.90;81.20;;;;;;5007999;28;20025;-77
2024/01/24 05:51:29;;;;;;;5.00;2.13;;;13.90;81.20;;;;;;4990581;28;20022;-78
2024/01/24 05:53:55;;;;;;;5.85;2.28;;;13.90;81.20;;;;;;5009385;28;20088;-85
2024/01/24 05:56:21;;;;;;;8.27;2.20;;;13.90;81.20;;;;;;5010341;28;20036;-82
2024/01/24 05:58:47;;;;;;;6.28;2.28;;;13.90;81.20;;;;;;5005858;28;20026;-84
2024/01/24 06:01:13;;;;;;;9.55;2.38;;;13.80;81.20;;;;;;5008927;28;20026;-75
2024/01/24 06:03:40;;;;;;;6.70;2.53;;;13.90;81.20;;;;;;5008123;28;20026;-81
2024/01/24 06:06:06;;;;;;;6.85;2.10;;;13.90;81.20;;;;;;5010064;28;20126;-84
2024/01/24 06:08:32;;;;;;;5.65;2.00;;;13.80;81.20;;;;;;4987332;28;20105;-75
2024/01/24 06:10:58;;;;;;;9.07;2.45;;;13.90;81.20;;;;;;5001705;28;20026;-82
2024/01/24 06:13:24;;;;;;;5.88;2.17;;;13.80;81.20;;;;;;4988402;28;20065;-80
2024/01/24 06:15:53;;;;;;;6.55;2.33;;;13.80;81.20;;;;;;5023104;28;20029;-83
2024/01/24 06:18:22;;;;;;;8.90;2.08;;;13.80;81.20;;;;;;4992101;28;20060;-76
2024/01/24 06:20:48;;;;;;;7.68;2.33;;;13.80;81.20;;;;;;4980348;28;20057;-80
2024/01/24 06:23:14;;;;;;;7.90;2.58;;;13.80;81.20;;;;;;5004696;28;20026;-76
2024/01/24 06:25:39;;;;;;;6.40;2.47;;;13.80;81.20;;;;;;5000555;28;20109;-82
2024/01/24 06:28:05;;;;;;;6.82;2.30;;;13.80;81.20;;;;;;5004211;28;20497;-75
2024/01/24 06:30:31;;;;;;;9.88;2.60;;;13.80;81.30;;;;;;5006382;28;20077;-85
2024/01/24 06:32:57;;;;;;;6.40;2.47;;;13.80;81.30;;;;;;4992529;28;20093;-76
2024/01/24 06:35:23;;;;;;;6.82;2.22;;;13.80;81.30;;;;;;5005987;28;20060;-83
2024/01/24 06:37:52;;;;;;;5.97;2.45;;;13.80;81.30;;;;;;4989469;28;20508;-84
2024/01/24 06:40:23;;;;;;;8.30;2.63;;;13.80;81.40;;;;;;5006581;28;20022;-80
2024/01/24 06:42:50;;;;;;;5.88;2.25;;;13.70;81.30;;;;;;5002756;28;20409;-81
2024/01/24 06:45:16;;;;;;;7.50;2.53;;;13.70;81.30;;;;;;5003921;28;20022;-76
2024/01/24 06:47:43;;;;;;;10.35;3.10;;;13.70;81.40;;;;;;4989385;28;20493;-75
2024/01/24 06:50:12;;;;;;;6.85;2.60;;;13.70;81.40;;;;;;5006602;28;20053;-81
2024/01/24 06:52:38;;;;;;;9.18;2.72;;;13.70;81.40;;;;;;4984119;28;20023;-76
2024/01/24 06:55:05;;;;;;;8.05;2.40;;;13.70;81.40;;;;;;4994809;28;20096;-81
2024/01/24 06:57:30;;;;;;;8.27;2.45;;;13.70;81.50;;;;;;5001464;28;20022;-77
2024/01/24 06:59:56;;;;;;;9.70;2.80;;;13.60;81.40;;;;;;5019690;28;20088;-76
2024/01/24 07:02:22;;;;;;;9.45;3.28;;;13.60;81.40;;;;;;5001266;28;20068;-89
2024/01/24 07:04:47;;;;;;;6.40;2.60;;;13.60;81.40;;;;;;5005201;28;20098;-81
2024/01/24 07:07:14;;;;;;;6.68;2.33;;;13.60;81.40;;;;;;5008443;28;20029;-80
2024/01/24 07:09:40;;;;;;;7.35;2.70;;;13.60;81.70;;;;;;4989363;28;20031;-85
2024/01/24 07:12:06;;;;;;;8.05;2.70;;;13.60;81.50;;;;;;4992899;28;20105;-83
2024/01/24 07:14:32;;;;;;;7.35;2.83;;;13.60;81.50;;;;;;4984293;28;20042;-83
2024/01/24 07:16:57;;;;;;;8.10;2.80;;;13.50;81.40;;;;;;5019678;28;20026;-88
2024/01/24 07:19:23;;;;;;;6.47;2.45;;;13.50;81.50;;;;;;5011699;28;20026;-80
2024/01/24 07:21:51;;;;;;;8.27;2.42;;;13.50;81.50;;;;;;5000773;28;20033;-80
2024/01/24 07:24:17;;;;;;;10.10;3.33;;;13.50;81.50;;;;;;5007700;28;20014;-76
2024/01/24 07:26:43;;;;;;;7.97;2.50;;;13.50;81.60;;;;;;4997037;28;20029;-81
2024/01/24 07:29:10;;;;;;;6.45;2.33;;;13.40;81.60;;;;;;5010560;28;20057;-89
2024/01/24 07:31:37;;;;;;;5.32;2.33;;;13.50;81.60;;;;;;5002888;28;20026;-77
2024/01/24 07:34:03;;;;;;;6.85;2.60;;;13.50;81.60;;;;;;4989969;28;20406;-80
2024/01/24 07:36:29;;;;;;;6.50;2.55;;;13.40;81.60;;;;;;5006091;28;20405;-89
2024/01/24 07:38:55;;;;;;;8.63;2.50;;;13.40;81.60;;;;;;5013612;28;20040;-91
2024/01/24 07:41:20;;;;;;;10.25;3.13;;;13.40;81.70;;;;;;5012032;28;20036;-90
2024/01/24 07:43:46;;;;;;;6.47;2.83;;;13.40;81.70;;;;;;5009712;28;20046;-89
2024/01/24 07:46:12;;;;;;;4.72;1.90;;;13.30;81.60;;;;;;5002768;28;20030;-79
2024/01/24 07:48:37;;;;;;;6.50;2.90;;;13.40;81.70;;;;;;4987119;28;20028;-78
2024/01/24 07:51:04;;;;;;;7.30;2.55;;;13.30;81.70;;;;;;5010838;28;20040;-89
2024/01/24 07:53:30;;;;;;;8.93;2.90;;;13.30;81.70;;;;;;5002389;28;20478;-85
2024/01/24 07:55:56;;;;;;;7.68;2.83;;;13.30;81.70;;;;;;4991855;28;20022;-80
2024/01/24 07:58:22;;;;;;;7.28;2.85;;;13.30;81.70;;;;;;4986283;28;20028;-77
2024/01/24 08:00:48;;;;;;;7.50;2.35;;;13.30;81.70;;;;;;4993040;28;20026;-82
2024/01/24 08:03:14;;;;;;;7.20;2.45;;;13.20;82.20;;;;;;5027049;28;20029;-78
2024/01/24 08:05:39;;;;;;;7.47;2.58;;;13.20;81.60;;;;;;5010387;28;20058;-82
2024/01/24 08:08:05;;;;;;;6.28;2.17;;;13.20;81.70;;;;;;4996269;28;20117;-84
2024/01/24 08:10:31;;;;;;;8.02;2.78;;;13.20;81.60;;;;;;4999472;28;20543;-80
2024/01/24 08:12:57;;;;;;;8.52;2.88;;;13.20;81.70;;;;;;5011434;28;20065;-82
2024/01/24 08:15:23;;;;;;;8.45;2.95;;;13.20;81.70;;;;;;5009953;28;20034;-89
2024/01/24 08:17:49;;;;;;;6.88;2.95;;;13.10;81.70;;;;;;5024900;28;20026;-77
2024/01/24 08:20:19;;;;;;;8.45;3.00;;;13.10;81.70;;;;;;4995749;28;20176;-83
2024/01/24 08:22:45;;;;;;;6.82;2.67;;;13.10;81.70;;;;;;4993028;28;20049;-83
2024/01/24 08:25:11;;;;;;;6.38;2.45;;;13.10;81.60;;;;;;4991678;28;20030;-77
2024/01/24 08:27:37;;;;;;;6.25;2.63;;;13.10;81.60;;;;;;5009299;28;20045;-86
2024/01/24 08:30:03;;;;;;;8.93;2.92;;;13.10;81.70;;;;;;4989731;28;20641;-77
2024/01/24 08:32:29;;;;;;;6.80;2.33;;;13.00;81.60;;;;;;4990975;28;20041;-87
2024/01/24 08:34:55;;;;;;;6.10;2.30;;;13.00;81.60;;;;;;5005547;28;20030;-83
2024/01/24 08:37:21;;;;;;;8.38;2.58;;;13.00;81.70;;;;;;4990847;28;20482;-77
2024/01/24 08:39:46;;;;;;;11.25;3.13;;;13.00;81.70;;;;;;4998675;28;20057;-83
2024/01/24 08:42:12;;;;;;;9.57;3.17;;;13.00;81.70;;;;;;5009248;28;20117;-82
2024/01/24 08:44:38;;;;;;;7.80;2.80;;;13.00;81.70;;;;;;5023965;28;20028;-83
2024/01/24 08:47:04;;;;;;;8.25;2.92;;;13.00;81.70;;;;;;5012299;28;20022;-82
2024/01/24 08:49:30;;;;;;;8.15;2.42;;;13.00;81.70;;;;;;4994796;28;20021;-88
2024/01/24 08:51:56;;;;;;;7.97;2.88;;;12.90;81.70;;;;;;5010857;28;20105;-85
2024/01/24 08:54:22;;;;;;;5.78;2.45;;;13.00;81.70;;;;;;4996344;28;20368;-88
2024/01/24 08:56:48;;;;;;;6.90;2.40;;;12.90;81.70;;;;;;5007562;28;20189;-84
2024/01/24 08:59:14;;;;;;;5.80;2.35;;;12.90;81.70;;;;;;4993172;28;20034;-87
2024/01/24 09:01:39;;;;;;;9.55;2.70;;;12.90;81.70;;;;;;4993165;28;20026;-76
2024/01/24 09:04:05;;;;;;;7.60;2.60;;;12.90;81.80;;;;;;4993083;28;20113;-76
2024/01/24 09:06:31;;;;;;;7.57;3.08;;;12.90;81.80;;;;;;4999558;28;20061;-77
2024/01/24 09:08:56;;;;;;;6.72;2.85;;;12.90;81.80;;;;;;5005079;28;20026;-76
2024/01/24 09:11:22;;;;;;;5.80;2.20;;;12.90;81.80;;;;;;4990288;28;20033;-85
2024/01/24 09:13:48;;;;;;;7.35;2.75;;;12.80;81.70;;;;;;5005365;28;20061;-78
2024/01/24 09:16:15;;;;;;;10.65;2.80;;;12.80;81.80;;;;;;4993399;28;20076;-86
2024/01/24 09:18:42;;;;;;;7.65;2.45;;;12.80;81.80;;;;;;5006315;28;20111;-84
2024/01/24 09:21:08;;;;;;;8.40;2.55;;;12.80;81.70;;;;;;5001199;28;20121;-75
2024/01/24 09:23:34;;;;;;;7.38;3.08;;;12.80;81.70;;;;;;4992935;28;20034;-85
2024/01/24 09:26:01;;;;;;;8.98;3.28;;;12.80;81.70;;;;;;4986824;28;20033;-85
2024/01/24 09:28:27;;;;;;;7.63;2.67;;;12.80;81.70;;;;;;5024935;28;20116;-81
2024/01/24 09:30:53;;;;;;;7.80;2.78;;;12.80;81.70;;;;;;4993962;28;20089;-75
2024/01/24 09:33:18;;;;;;;8.35;2.75;;;12.80;81.70;;;;;;4993531;28;20513;-76
2024/01/24 09:35:46;;;;;;;7.10;2.15;;;12.80;81.70;;;;;;5011953;28;20045;-87
2024/01/24 09:38:13;;;;;;;9.48;3.08;;;12.80;81.70;;;;;;5007461;28;20431;-86
2024/01/24 09:40:40;;;;;;;5.80;2.17;;;12.80;81.70;;;;;;5005744;28;20065;-76
2024/01/24 09:43:09;;;;;;;7.72;2.50;;;12.80;81.70;;;;;;4995252;28;20041;-86
2024/01/24 09:45:39;;;;;;;7.88;2.60;;;12.80;81.70;;;;;;5012435;28;20060;-80
2024/01/24 09:48:08;;;;;;;7.05;2.40;;;12.80;81.70;;;;;;5011890;28;20050;-81
2024/01/24 09:50:34;;;;;;;7.38;2.65;;;12.80;81.60;;;;;;4984619;28;20142;-87
2024/01/24 09:53:03;;;;;;;8.82;2.83;;;12.80;81.60;;;;;;4987803;28;20029;-85
2024/01/24 09:55:31;;;;;;;7.78;2.80;;;12.80;81.70;;;;;;5016407;28;20109;-86
2024/01/24 09:57:57;;;;;;;8.00;3.05;;;12.80;81.70;;;;;;4999823;28;20025;-87
2024/01/24 10:00:23;;;;;;;8.48;2.72;;;12.80;81.70;;;;;;5026403;28;20022;-77
2024/01/24 10:02:51;;;;;;;7.88;3.15;;;12.80;81.70;;;;;;5002067;28;20091;-75
2024/01/24 10:05:19;;;;;;;8.30;2.92;;;12.80;81.70;;;;;;4999640;28;20034;-87
2024/01/24 10:07:45;;;;;;;9.02;2.92;;;12.80;81.70;;;;;;4988137;28;20109;-79
2024/01/24 10:10:12;;;;;;;6.80;2.60;;;12.80;81.70;;;;;;4999752;28;20025;-77
2024/01/24 10:12:41;;;;;;;8.05;2.60;;;12.80;81.70;;;;;;5008097;28;20038;-76
2024/01/24 10:15:08;;;;;;;8.93;2.50;;;12.80;81.70;;;;;;5001013;28;20056;-89
2024/01/24 10:17:34;;;;;;;12.93;3.15;;;12.80;81.70;;;;;;4992629;28;20026;-77
2024/01/24 10:19:59;;;;;;;6.05;2.78;;;12.80;81.70;;;;;;5005938;28;20064;-76
2024/01/24 10:22:26;;;;;;;8.73;2.47;;;12.80;81.60;;;;;;4991325;28;20035;-88
2024/01/24 10:24:54;;;;;;;7.35;2.83;;;12.80;81.60;;;;;;4992318;28;20029;-77
2024/01/24 10:27:20;;;;;;;7.28;2.90;;;12.80;81.60;;;;;;4997021;28;20042;-82
2024/01/24 10:29:46;;;;;;;9.15;2.67;;;12.80;81.60;;;;;;5008738;28;20035;-84
2024/01/24 10:32:12;;;;;;;7.38;2.70;;;12.80;81.60;;;;;;5007973;28;20025;-81
2024/01/24 10:34:38;;;;;;;7.78;2.78;;;12.80;81.60;;;;;;5011841;28;20026;-84
2024/01/24 10:37:08;;;;;;;8.25;2.70;;;12.90;81.60;;;;;;5009804;28;20033;-85
2024/01/24 10:39:35;;;;;;;8.35;2.67;;;12.90;81.60;;;;;;4985023;28;20037;-83
2024/01/24 10:42:09;;;;;;;7.97;2.88;;;12.80;81.60;;;;;;4987470;28;20029;-86
2024/01/24 10:44:35;;;;;;;7.78;2.88;;;12.90;81.60;;;;;;5005660;28;20565;-82
2024/01/24 10:47:09;;;;;;;7.22;2.22;;;12.80;81.60;;;;;;5008829;28;20027;-88
2024/01/24 10:49:37;;;;;;;8.70;3.00;;;12.90;81.70;;;;;;5008104;28;20026;-84
2024/01/24 10:52:04;;;;;;;7.93;2.60;;;12.80;81.60;;;;;;5006526;28;20064;-76
2024/01/24 10:54:34;;;;;;;8.68;2.88;;;12.80;81.60;;;;;;5011928;28;20051;-85
2024/01/24 10:57:02;;;;;;;8.95;2.90;;;12.90;81.70;;;;;;5023326;28;20026;-84
2024/01/24 10:59:32;;;;;;;6.57;2.63;;;12.90;81.70;;;;;;5008373;28;20087;-82
2024/01/24 11:01:58;;;;;;;8.63;3.22;;;12.90;81.70;;;;;;4999979;28;20379;-88
2024/01/24 11:04:25;;;;;;;8.18;2.53;;;12.90;81.60;;;;;;4994692;28;20090;-85
2024/01/24 11:07:07;;;;;;;8.00;2.33;;;12.90;81.60;;;;;;5024189;28;20030;-82
2024/01/24 11:09:39;;;;;;;8.38;2.78;;;12.90;81.70;;;;;;5026311;28;20030;-82
2024/01/24 11:12:05;;;;;;;6.25;2.45;;;12.90;81.70;;;;;;5014784;28;20022;-87
2024/01/24 11:14:36;;;;;;;9.07;2.55;;;12.90;81.60;;;;;;4997677;28;20080;-86
2024/01/24 11:17:03;;;;;;;8.40;2.38;;;12.90;81.70;;;;;;4987754;28;20110;-86
2024/01/24 11:19:30;;;;;;;8.60;2.97;;;12.90;81.70;;;;;;5003939;28;20035;-86
2024/01/24 11:22:08;;;;;;;8.02;2.78;;;12.90;81.70;;;;;;4994353;28;20129;-85
2024/01/24 11:24:40;;;;;;;7.25;2.90;;;12.90;81.70;;;;;;5015042;28;20509;-88
2024/01/24 11:27:24;;;;;;;8.75;3.15;;;13.00;81.70;;;;;;4989894;28;20092;-82
2024/01/24 11:29:51;;;;;;;10.18;3.00;;;13.00;81.70;;;;;;5009066;28;20435;-81
2024/01/24 11:32:48;;;;;;;8.48;2.65;;;12.90;81.60;;;;;;4989622;28;20121;-88
2024/01/24 11:35:35;;;;;;;7.55;2.40;;;13.00;81.80;;;;;;5000999;28;20033;-83
2024/01/24 11:38:28;;;;;;;5.47;2.30;;;13.00;81.80;;;;;;5018747;28;20073;-83
2024/01/24 11:40:58;;;;;;;5.80;2.47;;;13.00;81.80;;;;;;4994923;28;20382;-83
2024/01/24 11:43:28;;;;;;;8.48;2.53;;;13.00;81.70;;;;;;4999013;28;20417;-82
2024/01/24 11:45:55;;;;;;;5.97;2.35;;;13.00;81.70;;;;;;5009774;28;20036;-84
2024/01/24 11:48:21;;;;;;;5.72;2.50;;;13.00;81.70;;;;;;4997855;28;20021;-83
2024/01/24 11:51:00;;;;;;;7.97;2.25;;;13.00;81.70;;;;;;4993546;28;20325;-83
2024/01/24 11:53:27;;;;;;;8.07;2.55;;;13.00;81.80;;;;;;4987603;28;20026;-77
2024/01/24 11:56:03;;;;;;;10.20;3.20;;;13.00;81.70;;;;;;5010815;28;20436;-90
2024/01/24 11:58:29;;;;;;;6.97;2.30;;;13.00;81.70;;;;;;5001147;28;20039;-89
2024/01/24 12:01:03;;;;;;;8.98;2.83;;;13.00;81.70;;;;;;4994406;28;20104;-89
2024/01/24 12:03:29;;;;;;;8.50;2.60;;;13.00;81.70;;;;;;4996783;28;20034;-77
2024/01/24 12:05:56;;;;;;;9.80;3.40;;;13.00;81.70;;;;;;4989476;28;20034;-89
2024/01/24 12:08:22;;;;;;;8.40;3.05;;;13.00;81.70;;;;;;4993485;28;20038;-77
2024/01/24 12:10:48;;;;;;;8.57;2.63;;;13.10;81.70;;;;;;4986384;28;20022;-83
2024/01/24 12:13:15;;;;;;;5.82;2.20;;;13.00;81.70;;;;;;5012159;28;20022;-83
2024/01/24 12:15:44;;;;;;;7.28;3.05;;;13.10;81.80;;;;;;5009529;28;20450;-76
2024/01/24 12:18:12;;;;;;;9.38;2.80;;;13.10;81.70;;;;;;5010422;28;20026;-84
2024/01/24 12:20:44;;;;;;;8.07;2.55;;;13.10;81.70;;;;;;4994111;28;20033;-83
2024/01/24 12:23:10;;;;;;;9.38;2.70;;;13.10;81.70;;;;;;4990630;28;20025;-83
2024/01/24 12:25:36;;;;;;;8.88;2.63;;;13.10;81.70;;;;;;4990620;28;20455;-76
2024/01/24 12:28:02;;;;;;;8.00;2.47;;;13.10;81.70;;;;;;5024440;28;20113;-83
2024/01/24 12:30:34;;;;;;;7.55;3.03;;;13.10;81.60;;;;;;5017060;28;20060;-77
2024/01/24 12:33:02;;;;;;;7.88;2.85;;;13.10;81.60;;;;;;4982476;28;20053;-76
2024/01/24 12:35:31;;;;;;;7.80;2.45;;;13.20;81.70;;;;;;5010319;28;20109;-82
2024/01/24 12:38:02;;;;;;;8.40;2.55;;;13.20;81.70;;;;;;5010520;28;20034;-77
2024/01/24 12:40:29;;;;;;;9.00;2.58;;;13.20;81.70;;;;;;4984632;28;20025;-76
2024/01/24 12:42:59;;;;;;;7.95;2.42;;;13.20;81.60;;;;;;5010390;28;20060;-82
2024/01/24 12:45:26;;;;;;;6.65;2.40;;;13.20;81.60;;;;;;5007246;28;20494;-91